Humidity-temperature Sensor

Selected Measurement Type: Relative Humidity

 
Relative Humidity [%]     6 entries per hour
Showing data from 3/29/2016 (00:00:00 Z) to 3/28/2016 (00:01:00 Z)
Previous Next [ Day | 3-Days | 7-Days ]
First Last
Prev [ Day | 3-Days | 7-Days ] Next
First Last

Start Time:     :
End Time:     :     
Time (in GMT) :00 :50 :40 :30 :20 :10
Previous Next [ Day | 3-Days | 7-Days ]
First Last
Prev [ Day | 3-Days | 7-Days ] Next
First Last


123 => good data
MM => data is determined as missing
-- => data not received/configured
Back to Top Back to Top
3/29/2016 00:00 to 23:10 78.20 77.68 77.38 77.03 77.63 77.53
3/28/2016 23:00 to 22:10 76.14 75.52 76.89 75.37 76.10 76.70
3/28/2016 22:00 to 21:10 77.22 75.31 74.13 75.89 78.09 80.58
3/28/2016 21:00 to 20:10 80.96 80.33 78.26 78.24 79.00 78.94
3/28/2016 20:00 to 19:10 78.46 79.32 80.52 80.29 80.90 81.14
3/28/2016 19:00 to 18:10 81.39 82.04 82.39 81.77 80.90 82.14
3/28/2016 18:00 to 17:10 82.24 83.16 83.64 83.51 83.20 81.68
3/28/2016 17:00 to 16:10 82.51 83.49 84.07 83.03 83.70 84.88
3/28/2016 16:00 to 15:10 84.74 84.40 83.39 84.09 83.78 84.34
3/28/2016 15:00 to 14:10 83.51 84.01 84.22 84.18 83.91 83.74
3/28/2016 14:00 to 13:10 83.74 83.76 83.60 82.56 83.41 84.01
3/28/2016 13:00 to 12:10 84.96 84.97 85.63 86.02 86.17 86.05
3/28/2016 12:00 to 11:10 86.31 86.63 86.61 87.27 86.81 86.59
3/28/2016 11:00 to 10:10 86.15 85.92 85.61 85.23 85.19 85.32
3/28/2016 10:00 to 9:10 84.59 84.76 84.74 84.67 84.65 84.41
3/28/2016 09:00 to 8:10 84.14 83.86 84.07 83.84 83.60 83.78
3/28/2016 08:00 to 7:10 83.14 82.47 83.28 83.14 82.37 82.51
3/28/2016 07:00 to 6:10 81.87 83.39 82.43 82.18 82.18 82.91
3/28/2016 06:00 to 5:10 83.68 83.20 83.10 82.91 82.64 83.30
3/28/2016 05:00 to 4:10 82.62 82.99 82.87 83.10 83.24 83.47
3/28/2016 04:00 to 3:10 83.70 83.32 82.93 83.24 83.45 83.76
3/28/2016 03:00 to 2:10 84.20 84.76 83.53 83.95 83.05 81.10
3/28/2016 02:00 to 1:10 80.00 80.44 80.87 81.50 81.37 81.66
3/28/2016 01:00 to 0:10 81.62 81.43 81.08 80.83 80.00 79.28